Terminal Aerodrome Forecast
Issued by NWS

Home | Current Version | Previous Version | Text Only | Print | Product List | Glossary On
Versions: 1 2 3 4 5 6 7 8 9 10 11 12 13 14 15 16
000
FTPQ31 PGUM 052022 RRN
TAFGRO
TAF

TAF
PGWT 052022Z 0520/0618 09011KT P6SM VCSH FEW020 SCT060
     FM060000 09012G20KT P6SM VCSH FEW025 SCT060
     FM060900 08011KT P6SM VCSH FEW025 SCT060=

USA.gov is the U.S. government's official web portal to all federal, state and local government web resources and services.